createdAt,value
2023-04-29T00:00:06.586Z,28.60
2023-04-29T00:01:06.596Z,28.40
2023-04-29T00:02:06.169Z,28.40
2023-04-29T00:03:06.307Z,34.80
2023-04-29T00:04:06.299Z,33.30
2023-04-29T00:05:06.378Z,31.60
2023-04-29T00:06:06.169Z,32.80
2023-04-29T00:07:06.092Z,30.10
2023-04-29T00:08:06.142Z,29.30
2023-04-29T00:09:06.317Z,29.70
2023-04-29T00:10:06.114Z,29.60
2023-04-29T00:11:06.337Z,30.50
2023-04-29T00:12:06.342Z,33.40
2023-04-29T00:13:06.375Z,33.30
2023-04-29T00:14:06.551Z,35.50
2023-04-29T00:15:06.565Z,32.60
2023-04-29T00:16:06.641Z,35.60
2023-04-29T00:17:06.516Z,33.50
2023-04-29T00:18:06.221Z,39.50
2023-04-29T00:19:06.047Z,32.60
2023-04-29T00:20:06.380Z,32.60
2023-04-29T00:21:06.826Z,32.30
2023-04-29T00:22:06.602Z,32.00
2023-04-29T00:23:06.832Z,32.00
2023-04-29T00:24:06.009Z,32.20
2023-04-29T00:25:06.009Z,31.80
2023-04-29T00:26:06.658Z,32.90
2023-04-29T00:27:06.228Z,31.10
2023-04-29T00:28:06.455Z,30.90
2023-04-29T00:29:06.696Z,33.40
2023-04-29T00:30:06.451Z,28.20
2023-04-29T00:31:06.676Z,30.60
2023-04-29T00:32:06.058Z,28.40
2023-04-29T00:33:05.986Z,30.90
2023-04-29T00:34:05.913Z,30.00
2023-04-29T00:35:06.510Z,31.20
2023-04-29T00:36:06.116Z,30.80
2023-04-29T00:37:05.905Z,30.00
2023-04-29T00:38:05.887Z,29.60
2023-04-29T00:39:06.117Z,33.20
2023-04-29T00:40:06.317Z,30.40
2023-04-29T00:41:06.365Z,33.10
2023-04-29T00:42:06.418Z,32.10
2023-04-29T00:43:06.332Z,36.80
2023-04-29T00:44:06.592Z,32.40
2023-04-29T00:45:08.191Z,34.20
2023-04-29T00:46:06.699Z,38.50
2023-04-29T00:47:06.565Z,36.40
2023-04-29T00:48:06.014Z,38.10
2023-04-29T00:49:05.973Z,39.20
2023-04-29T00:50:06.689Z,37.90
2023-04-29T00:51:06.188Z,41.40
2023-04-29T00:52:05.789Z,41.80
2023-04-29T00:53:05.994Z,39.90
2023-04-29T00:54:05.820Z,42.70
2023-04-29T00:55:06.009Z,36.80
2023-04-29T00:56:06.625Z,38.60
2023-04-29T00:57:06.792Z,42.30
2023-04-29T00:58:06.028Z,43.80
2023-04-29T00:59:06.263Z,41.40
2023-04-29T01:00:05.846Z,46.60
2023-04-29T01:01:06.705Z,45.00
2023-04-29T01:02:05.762Z,45.20
2023-04-29T01:03:05.884Z,43.00
2023-04-29T01:04:05.965Z,44.40
2023-04-29T01:05:05.781Z,45.80
2023-04-29T01:06:05.700Z,46.10
2023-04-29T01:07:05.694Z,46.50
2023-04-29T01:08:05.965Z,49.50
2023-04-29T01:09:06.020Z,47.70
2023-04-29T01:10:05.706Z,46.40
2023-04-29T01:11:05.694Z,48.50
2023-04-29T01:12:06.124Z,51.40
2023-04-29T01:13:05.702Z,49.10
2023-04-29T01:14:06.340Z,50.50
2023-04-29T01:15:05.688Z,53.50
2023-04-29T01:16:05.987Z,55.40
2023-04-29T01:17:06.529Z,57.60
2023-04-29T01:18:05.705Z,55.10
2023-04-29T01:19:06.473Z,52.30
2023-04-29T01:20:06.384Z,53.30
2023-04-29T01:21:05.598Z,57.10
2023-04-29T01:22:05.580Z,57.20
2023-04-29T01:23:05.612Z,54.10
2023-04-29T01:24:05.593Z,57.80
2023-04-29T01:25:05.608Z,60.60
2023-04-29T01:26:05.608Z,62.10
2023-04-29T01:27:06.242Z,61.40
2023-04-29T01:28:06.387Z,56.60
2023-04-29T01:29:06.244Z,62.00
2023-04-29T01:30:05.543Z,59.30
2023-04-29T01:31:05.574Z,53.70
2023-04-29T01:32:05.542Z,57.90
2023-04-29T01:33:05.614Z,58.70
2023-04-29T01:34:05.557Z,58.10
2023-04-29T01:35:05.503Z,61.80
2023-04-29T01:36:05.674Z,58.70
2023-04-29T01:37:05.688Z,59.80
2023-04-29T01:38:05.694Z,60.20
2023-04-29T01:39:05.719Z,61.90
2023-04-29T01:40:05.501Z,65.20
2023-04-29T01:41:05.516Z,64.70
2023-04-29T01:42:05.722Z,62.90
2023-04-29T01:43:05.746Z,63.30
2023-04-29T01:44:05.732Z,69.90
2023-04-29T01:45:05.448Z,68.50
2023-04-29T01:46:05.803Z,70.30
2023-04-29T01:47:05.842Z,75.10
2023-04-29T01:48:05.567Z,71.10
2023-04-29T01:49:05.790Z,71.70
2023-04-29T01:50:05.795Z,72.60
2023-04-29T01:51:05.797Z,78.40
2023-04-29T01:52:05.817Z,79.50
2023-04-29T01:53:05.822Z,82.40
2023-04-29T01:54:05.401Z,86.20
2023-04-29T01:55:05.406Z,92.50
2023-04-29T01:56:05.411Z,92.20
2023-04-29T01:57:05.418Z,92.10
2023-04-29T01:58:05.423Z,93.60
2023-04-29T01:59:05.638Z,105.60
2023-04-29T02:00:05.657Z,93.20
2023-04-29T02:01:05.479Z,101.10
2023-04-29T02:02:05.368Z,94.80
2023-04-29T02:03:05.511Z,93.50
2023-04-29T02:04:05.577Z,102.00
2023-04-29T02:05:05.501Z,106.60
2023-04-29T02:06:05.568Z,104.30
2023-04-29T02:07:05.620Z,105.60
2023-04-29T02:08:05.702Z,101.40
2023-04-29T02:09:05.740Z,94.50
2023-04-29T02:10:05.498Z,97.50
2023-04-29T02:11:05.504Z,108.50
2023-04-29T02:12:05.387Z,100.10
2023-04-29T02:13:05.554Z,100.30
2023-04-29T02:14:05.932Z,95.70
2023-04-29T02:15:05.748Z,94.00
2023-04-29T02:16:06.231Z,85.90
2023-04-29T02:17:06.179Z,96.10
2023-04-29T02:18:05.595Z,94.50
2023-04-29T02:19:06.087Z,93.50
2023-04-29T02:20:05.784Z,87.20
2023-04-29T02:21:06.176Z,97.50
2023-04-29T02:22:06.060Z,99.60
2023-04-29T02:23:06.005Z,95.50
2023-04-29T02:24:06.124Z,107.60
2023-04-29T02:25:05.402Z,109.40
2023-04-29T02:26:06.212Z,101.90
2023-04-29T02:27:06.028Z,95.90
2023-04-29T02:28:06.002Z,95.60
2023-04-29T02:29:05.228Z,107.50
2023-04-29T02:30:05.168Z,104.80
2023-04-29T02:31:05.259Z,96.60
2023-04-29T02:32:05.345Z,96.80
2023-04-29T02:33:07.750Z,106.50
2023-04-29T02:34:05.431Z,111.90
2023-04-29T02:35:05.493Z,107.70
2023-04-29T02:36:05.574Z,113.90
2023-04-29T02:37:05.649Z,115.40
2023-04-29T02:38:05.707Z,117.90
2023-04-29T02:39:05.767Z,122.40
2023-04-29T02:40:05.297Z,117.50
2023-04-29T02:41:05.297Z,114.80
2023-04-29T02:42:05.902Z,132.10
2023-04-29T02:43:06.032Z,124.30
2023-04-29T02:44:05.932Z,122.80
2023-04-29T02:45:05.327Z,130.40
2023-04-29T02:46:06.089Z,126.60
2023-04-29T02:47:05.969Z,129.80
2023-04-29T02:48:05.849Z,124.60
2023-04-29T02:49:06.039Z,129.30
2023-04-29T02:50:04.993Z,124.00
2023-04-29T02:51:05.014Z,116.10
2023-04-29T02:52:04.983Z,135.60
2023-04-29T02:53:04.995Z,117.50
2023-04-29T02:54:05.000Z,133.60
2023-04-29T02:55:05.187Z,129.80
2023-04-29T02:56:06.425Z,136.30
2023-04-29T02:57:04.994Z,130.20
2023-04-29T02:58:05.011Z,140.00
2023-04-29T02:59:04.955Z,126.20
2023-04-29T03:00:04.978Z,142.80
2023-04-29T03:01:05.078Z,147.30
2023-04-29T03:02:05.047Z,136.30
2023-04-29T03:03:05.100Z,135.30
2023-04-29T03:04:05.189Z,145.10
2023-04-29T03:05:05.264Z,147.10
2023-04-29T03:06:05.288Z,147.30
2023-04-29T03:07:05.298Z,145.80
2023-04-29T03:08:05.067Z,154.00
2023-04-29T03:09:05.497Z,153.60
2023-04-29T03:10:05.535Z,139.70
2023-04-29T03:11:05.609Z,137.40
2023-04-29T03:12:05.092Z,138.80
2023-04-29T03:13:05.334Z,125.80
2023-04-29T03:14:05.673Z,136.50
2023-04-29T03:15:05.324Z,137.60
2023-04-29T03:16:05.322Z,132.00
2023-04-29T03:17:05.689Z,129.20
2023-04-29T03:18:05.855Z,134.90
2023-04-29T03:19:04.788Z,132.40
2023-04-29T03:20:04.870Z,142.90
2023-04-29T03:21:04.834Z,136.50
2023-04-29T03:22:04.762Z,138.10
2023-04-29T03:23:04.786Z,135.50
2023-04-29T03:24:04.756Z,130.00
2023-04-29T03:25:04.767Z,132.10
2023-04-29T03:26:04.818Z,132.30
2023-04-29T03:27:04.797Z,136.60
2023-04-29T03:28:04.714Z,134.20
2023-04-29T03:29:04.760Z,136.20
2023-04-29T03:30:04.873Z,139.70
2023-04-29T03:31:04.914Z,134.40
2023-04-29T03:32:04.822Z,130.50
2023-04-29T03:33:04.862Z,125.40
2023-04-29T03:34:04.825Z,125.10
2023-04-29T03:35:04.835Z,128.20
2023-04-29T03:36:04.663Z,130.50
2023-04-29T03:37:04.684Z,106.10
2023-04-29T03:38:04.688Z,102.40
2023-04-29T03:39:04.664Z,114.80
2023-04-29T03:40:04.661Z,114.00
2023-04-29T03:41:04.668Z,98.90
2023-04-29T03:42:05.072Z,102.10
2023-04-29T03:43:05.120Z,109.90
2023-04-29T03:44:05.092Z,95.90
2023-04-29T03:45:05.103Z,102.60
2023-04-29T03:46:04.598Z,107.90
2023-04-29T03:47:04.736Z,115.90
2023-04-29T03:48:04.619Z,123.00
2023-04-29T03:49:04.623Z,102.60
2023-04-29T03:50:04.572Z,111.20
2023-04-29T03:51:04.604Z,114.70
2023-04-29T03:52:04.603Z,116.30
2023-04-29T03:53:04.612Z,120.00
2023-04-29T03:54:04.553Z,118.50
2023-04-29T03:55:04.586Z,127.50
2023-04-29T03:56:04.551Z,126.40
2023-04-29T03:57:04.522Z,119.90
2023-04-29T03:58:04.597Z,120.30
2023-04-29T03:59:04.639Z,124.20
2023-04-29T04:00:04.576Z,117.60
2023-04-29T04:01:04.755Z,122.60
2023-04-29T04:02:04.768Z,122.60
2023-04-29T04:03:05.690Z,120.10
2023-04-29T04:04:04.879Z,105.70
2023-04-29T04:05:04.823Z,104.50
2023-04-29T04:06:04.797Z,114.40
2023-04-29T04:07:04.523Z,118.40
2023-04-29T04:08:04.682Z,118.30
2023-04-29T04:09:04.486Z,107.00
2023-04-29T04:10:04.843Z,111.30
2023-04-29T04:11:04.845Z,99.80
2023-04-29T04:12:04.457Z,100.10
2023-04-29T04:13:04.880Z,98.40
2023-04-29T04:14:04.668Z,92.50
2023-04-29T04:15:04.925Z,86.90
2023-04-29T04:16:04.957Z,91.60
2023-04-29T04:17:04.487Z,81.10
2023-04-29T04:18:04.995Z,86.20
2023-04-29T04:19:04.364Z,86.90
2023-04-29T04:20:04.529Z,84.00
2023-04-29T04:21:04.760Z,85.90
2023-04-29T04:22:04.524Z,84.00
2023-04-29T04:23:04.330Z,81.50
2023-04-29T04:24:04.322Z,87.80
2023-04-29T04:25:04.355Z,87.30
2023-04-29T04:26:04.369Z,88.80
2023-04-29T04:27:04.358Z,86.40
2023-04-29T04:28:04.399Z,85.40
2023-04-29T04:29:04.563Z,85.20
2023-04-29T04:30:04.671Z,89.50
2023-04-29T04:31:04.693Z,84.40
2023-04-29T04:32:04.846Z,87.20
2023-04-29T04:33:04.906Z,83.60
2023-04-29T04:34:04.286Z,95.90
2023-04-29T04:35:04.304Z,84.70
2023-04-29T04:36:04.321Z,86.10
2023-04-29T04:37:04.425Z,81.00
2023-04-29T04:38:04.543Z,88.70
2023-04-29T04:39:04.598Z,91.80
2023-04-29T04:40:04.688Z,92.60
2023-04-29T04:41:04.707Z,88.70
2023-04-29T04:42:04.247Z,84.50
2023-04-29T04:43:04.464Z,82.50
2023-04-29T04:44:04.877Z,86.20
2023-04-29T04:45:04.201Z,92.20
2023-04-29T04:46:05.687Z,93.10
2023-04-29T04:47:05.071Z,86.50
2023-04-29T04:48:04.345Z,89.40
2023-04-29T04:49:04.172Z,91.90
2023-04-29T04:50:04.323Z,94.00
2023-04-29T04:51:04.201Z,99.60
2023-04-29T04:52:04.155Z,93.70
2023-04-29T04:53:04.175Z,100.50
2023-04-29T04:54:04.171Z,98.70
2023-04-29T04:55:04.138Z,98.10
2023-04-29T04:56:04.193Z,98.40
2023-04-29T04:57:04.136Z,105.90
2023-04-29T04:58:04.320Z,94.40
2023-04-29T04:59:04.378Z,107.80
2023-04-29T05:00:04.417Z,114.70
2023-04-29T05:01:04.431Z,101.80
2023-04-29T05:02:04.246Z,102.00
2023-04-29T05:03:04.735Z,111.60
2023-04-29T05:04:04.265Z,106.10
2023-04-29T05:05:04.717Z,112.80
2023-04-29T05:06:04.196Z,115.00
2023-04-29T05:07:04.054Z,116.80
2023-04-29T05:08:04.037Z,108.60
2023-04-29T05:09:04.627Z,115.90
2023-04-29T05:10:04.632Z,121.00
2023-04-29T05:11:04.032Z,119.10
2023-04-29T05:12:04.237Z,126.90
2023-04-29T05:13:04.472Z,125.80
2023-04-29T05:14:04.005Z,127.20
2023-04-29T05:15:04.013Z,116.70
2023-04-29T05:16:06.502Z,123.90
2023-04-29T05:17:04.232Z,129.20
2023-04-29T05:18:05.035Z,138.10
2023-04-29T05:19:04.687Z,117.60
2023-04-29T05:20:03.958Z,119.50
2023-04-29T05:21:04.006Z,121.20
2023-04-29T05:22:03.968Z,121.30
2023-04-29T05:23:03.999Z,124.20
2023-04-29T05:24:03.973Z,122.90
2023-04-29T05:25:03.951Z,120.30
2023-04-29T05:26:03.967Z,112.20
2023-04-29T05:27:04.234Z,116.50
2023-04-29T05:28:04.157Z,123.00
2023-04-29T05:29:03.943Z,122.50
2023-04-29T05:30:03.952Z,110.20
2023-04-29T05:31:04.510Z,121.90
2023-04-29T05:32:04.524Z,114.10
2023-04-29T05:33:04.653Z,120.60
2023-04-29T05:34:03.885Z,112.90
2023-04-29T05:35:06.673Z,114.40
2023-04-29T05:36:03.862Z,118.50
2023-04-29T05:37:04.606Z,108.80
2023-04-29T05:38:03.818Z,113.30
2023-04-29T05:39:03.859Z,118.30
2023-04-29T05:40:03.832Z,113.30
2023-04-29T05:41:03.842Z,112.10
2023-04-29T05:42:03.845Z,114.70
2023-04-29T05:43:03.833Z,108.30
2023-04-29T05:44:03.831Z,118.00
2023-04-29T05:45:03.962Z,109.70
2023-04-29T05:46:03.876Z,111.30
2023-04-29T05:47:03.853Z,108.50
2023-04-29T05:48:03.902Z,109.60
2023-04-29T05:49:03.769Z,118.00
2023-04-29T05:50:03.758Z,106.40
2023-04-29T05:51:03.780Z,109.50
2023-04-29T05:52:03.739Z,113.60
2023-04-29T05:53:03.801Z,114.40
2023-04-29T05:54:03.863Z,108.70
2023-04-29T05:55:04.010Z,101.10
2023-04-29T05:56:03.786Z,99.70
2023-04-29T05:57:04.013Z,98.00
2023-04-29T05:58:03.936Z,103.00
2023-04-29T05:59:04.030Z,100.00
2023-04-29T06:00:03.820Z,108.20
2023-04-29T06:01:03.909Z,95.70
2023-04-29T06:02:04.166Z,98.70
2023-04-29T06:03:03.966Z,99.70
2023-04-29T06:04:04.002Z,103.70
2023-04-29T06:05:04.299Z,106.90
2023-04-29T06:06:03.670Z,99.80
2023-04-29T06:07:03.654Z,97.70
2023-04-29T06:08:03.783Z,105.90
2023-04-29T06:09:05.187Z,111.00
2023-04-29T06:10:03.687Z,102.60
2023-04-29T06:11:04.155Z,92.90
2023-04-29T06:12:03.682Z,107.60
2023-04-29T06:13:03.662Z,98.90
2023-04-29T06:14:04.206Z,100.80
2023-04-29T06:15:03.732Z,108.50
2023-04-29T06:16:04.084Z,111.70
2023-04-29T06:17:04.194Z,109.50
2023-04-29T06:18:03.609Z,110.80
2023-04-29T06:19:03.541Z,109.10
2023-04-29T06:20:03.585Z,114.10
2023-04-29T06:21:03.706Z,115.90
2023-04-29T06:22:03.706Z,103.70
2023-04-29T06:23:03.811Z,103.10
2023-04-29T06:24:03.623Z,113.00
2023-04-29T06:25:03.716Z,108.70
2023-04-29T06:26:03.518Z,107.10
2023-04-29T06:27:03.725Z,106.20
2023-04-29T06:28:03.626Z,114.90
2023-04-29T06:29:04.156Z,113.40
2023-04-29T06:30:04.290Z,100.70
2023-04-29T06:31:03.646Z,104.60
2023-04-29T06:32:03.997Z,103.40
2023-04-29T06:33:03.804Z,104.50
2023-04-29T06:34:03.465Z,97.60
2023-04-29T06:35:03.694Z,101.70
2023-04-29T06:36:03.702Z,104.40
2023-04-29T06:37:03.700Z,97.60
2023-04-29T06:38:03.823Z,97.40
2023-04-29T06:39:03.925Z,108.30
2023-04-29T06:40:03.407Z,96.60
2023-04-29T06:41:04.032Z,96.90
2023-04-29T06:42:04.047Z,96.90
2023-04-29T06:43:04.296Z,96.30
2023-04-29T06:44:04.051Z,109.80
2023-04-29T06:45:03.640Z,114.70
2023-04-29T06:46:04.167Z,106.80
2023-04-29T06:47:03.400Z,114.30
2023-04-29T06:48:03.388Z,112.20
2023-04-29T06:49:03.378Z,105.60
2023-04-29T06:50:03.374Z,109.20
2023-04-29T06:51:03.397Z,103.50
2023-04-29T06:52:03.416Z,122.20
2023-04-29T06:53:03.389Z,113.80
2023-04-29T06:54:03.516Z,121.20
2023-04-29T06:55:03.413Z,122.80
2023-04-29T06:56:03.635Z,116.20
2023-04-29T06:57:03.421Z,105.00
2023-04-29T06:58:03.630Z,116.20
2023-04-29T06:59:03.756Z,121.80
2023-04-29T07:00:03.651Z,126.00
2023-04-29T07:01:03.929Z,119.90
2023-04-29T07:02:03.256Z,114.20
2023-04-29T07:03:03.753Z,117.40
2023-04-29T07:04:03.417Z,107.20
2023-04-29T07:05:03.685Z,113.20
2023-04-29T07:06:03.799Z,119.60
2023-04-29T07:07:04.003Z,116.70
2023-04-29T07:08:04.130Z,112.10
2023-04-29T07:09:03.397Z,114.40
2023-04-29T07:10:03.221Z,108.70
2023-04-29T07:11:04.029Z,114.90
2023-04-29T07:12:03.734Z,108.30
2023-04-29T07:13:03.334Z,105.00
2023-04-29T07:14:03.337Z,108.10
2023-04-29T07:15:04.156Z,109.90
2023-04-29T07:16:03.168Z,105.40
2023-04-29T07:17:03.197Z,108.70
2023-04-29T07:18:03.311Z,115.30
2023-04-29T07:19:03.288Z,114.90
2023-04-29T07:20:03.205Z,108.30
2023-04-29T07:21:03.314Z,112.10
2023-04-29T07:22:03.502Z,99.20
2023-04-29T07:23:03.514Z,109.20
2023-04-29T07:24:03.414Z,94.60
2023-04-29T07:25:03.632Z,104.20
2023-04-29T07:26:03.734Z,105.10
2023-04-29T07:27:03.846Z,97.30
2023-04-29T07:28:03.865Z,95.70
2023-04-29T07:29:03.191Z,98.50
2023-04-29T07:30:03.079Z,101.00
2023-04-29T07:31:03.200Z,101.80
2023-04-29T07:32:03.072Z,93.40
2023-04-29T07:33:03.139Z,86.60
2023-04-29T07:34:03.078Z,89.40
2023-04-29T07:35:03.109Z,95.10
2023-04-29T07:36:03.090Z,97.90
2023-04-29T07:37:03.100Z,95.40
2023-04-29T07:38:03.003Z,85.90
2023-04-29T07:39:03.121Z,93.70
2023-04-29T07:40:03.009Z,93.00
2023-04-29T07:41:03.125Z,105.90
2023-04-29T07:42:03.170Z,96.10
2023-04-29T07:43:03.138Z,95.20
2023-04-29T07:44:02.960Z,100.50
2023-04-29T07:45:03.070Z,93.90
2023-04-29T07:46:03.093Z,104.50
2023-04-29T07:47:03.186Z,85.00
2023-04-29T07:48:03.108Z,93.00
2023-04-29T07:49:02.976Z,101.40
2023-04-29T07:50:03.012Z,85.70
2023-04-29T07:51:02.999Z,86.60
2023-04-29T07:52:02.998Z,83.70
2023-04-29T07:53:03.112Z,85.30
2023-04-29T07:54:03.137Z,85.30
2023-04-29T07:55:03.131Z,97.10
2023-04-29T07:56:03.232Z,82.20
2023-04-29T07:57:03.245Z,87.80
2023-04-29T07:58:03.289Z,84.60
2023-04-29T07:59:03.357Z,89.70
2023-04-29T08:00:03.381Z,76.80
2023-04-29T08:01:03.150Z,82.30
2023-04-29T08:02:02.845Z,75.40
2023-04-29T08:03:02.955Z,70.40
2023-04-29T08:04:03.210Z,79.10
2023-04-29T08:05:03.817Z,80.70
2023-04-29T08:06:02.893Z,85.60
2023-04-29T08:07:02.879Z,83.40
2023-04-29T08:08:02.907Z,83.80
2023-04-29T08:09:03.287Z,89.60
2023-04-29T08:10:02.921Z,89.20
2023-04-29T08:11:02.941Z,86.90
2023-04-29T08:12:02.967Z,90.20
2023-04-29T08:13:02.765Z,87.70
2023-04-29T08:14:02.762Z,92.10
2023-04-29T08:15:02.962Z,95.60
2023-04-29T08:16:02.890Z,102.00
2023-04-29T08:17:02.865Z,99.80
2023-04-29T08:18:03.045Z,102.00
2023-04-29T08:19:02.774Z,97.60
2023-04-29T08:20:02.763Z,101.70
2023-04-29T08:21:03.092Z,100.00
2023-04-29T08:22:03.077Z,97.10
2023-04-29T08:23:03.092Z,87.50
2023-04-29T08:24:02.804Z,85.60
2023-04-29T08:25:03.121Z,91.30
2023-04-29T08:26:03.154Z,87.60
2023-04-29T08:27:03.145Z,89.80
2023-04-29T08:28:03.158Z,75.50
2023-04-29T08:29:02.635Z,77.40
2023-04-29T08:30:02.674Z,78.60
2023-04-29T08:31:02.653Z,79.80
2023-04-29T08:32:02.696Z,84.80
2023-04-29T08:33:02.885Z,76.90
2023-04-29T08:34:03.104Z,69.10
2023-04-29T08:35:03.096Z,76.40
2023-04-29T08:36:02.609Z,69.80
2023-04-29T08:37:03.106Z,75.50
2023-04-29T08:38:02.702Z,69.10
2023-04-29T08:39:02.908Z,67.90
2023-04-29T08:40:03.136Z,76.30
2023-04-29T08:41:02.736Z,64.70
2023-04-29T08:42:03.237Z,67.10
2023-04-29T08:43:02.550Z,66.80
2023-04-29T08:44:02.664Z,71.40
2023-04-29T08:45:02.759Z,68.00
2023-04-29T08:46:02.635Z,68.30
2023-04-29T08:47:02.980Z,72.00
2023-04-29T08:48:02.654Z,71.80
2023-04-29T08:49:02.574Z,76.90
2023-04-29T08:50:02.597Z,77.80
2023-04-29T08:51:02.612Z,77.00
2023-04-29T08:52:02.604Z,73.20
2023-04-29T08:53:02.720Z,69.70
2023-04-29T08:54:02.633Z,73.60
2023-04-29T08:55:02.807Z,74.10
2023-04-29T08:56:02.746Z,79.00
2023-04-29T08:57:02.844Z,75.80
2023-04-29T08:58:02.852Z,75.90
2023-04-29T08:59:02.463Z,71.90
2023-04-29T09:00:03.004Z,71.60
2023-04-29T09:01:02.687Z,75.80
2023-04-29T09:02:02.869Z,72.60
2023-04-29T09:03:03.173Z,71.10
2023-04-29T09:04:03.056Z,69.40
2023-04-29T09:05:02.724Z,69.70
2023-04-29T09:06:02.418Z,69.70
2023-04-29T09:07:02.492Z,68.80
2023-04-29T09:08:02.402Z,66.50
2023-04-29T09:09:02.923Z,67.00
2023-04-29T09:10:02.928Z,61.70
2023-04-29T09:11:02.444Z,65.40
2023-04-29T09:12:02.359Z,59.40
2023-04-29T09:13:02.341Z,61.10
2023-04-29T09:14:02.463Z,55.50
2023-04-29T09:15:02.455Z,58.00
2023-04-29T09:16:02.383Z,54.10
2023-04-29T09:17:02.356Z,55.20
2023-04-29T09:18:02.439Z,58.20
2023-04-29T09:19:02.700Z,58.00
2023-04-29T09:20:02.810Z,58.70
2023-04-29T09:21:02.697Z,57.80
2023-04-29T09:22:02.430Z,58.00
2023-04-29T09:23:02.928Z,63.10
2023-04-29T09:24:02.315Z,61.50
2023-04-29T09:25:02.627Z,55.00
2023-04-29T09:26:02.837Z,60.60
2023-04-29T09:27:03.222Z,60.90
2023-04-29T09:28:03.263Z,60.50
2023-04-29T09:29:02.960Z,57.50
2023-04-29T09:30:02.464Z,59.00
2023-04-29T09:31:02.465Z,57.40
2023-04-29T09:32:03.231Z,59.90
2023-04-29T09:33:02.886Z,60.60
2023-04-29T09:34:02.208Z,57.70
2023-04-29T09:35:02.796Z,56.30
2023-04-29T09:36:03.041Z,58.30
2023-04-29T09:37:02.502Z,54.50
2023-04-29T09:38:02.613Z,60.00
2023-04-29T09:39:02.314Z,57.10
2023-04-29T09:40:02.843Z,56.40
2023-04-29T09:41:02.521Z,58.50
2023-04-29T09:42:02.147Z,60.10
2023-04-29T09:43:02.250Z,61.90
2023-04-29T09:44:02.164Z,66.80
2023-04-29T09:45:02.159Z,56.00
2023-04-29T09:46:02.249Z,58.70
2023-04-29T09:47:02.172Z,57.80
2023-04-29T09:48:02.229Z,55.70
2023-04-29T09:49:02.223Z,56.80
2023-04-29T09:50:02.198Z,52.60
2023-04-29T09:51:02.372Z,54.30
2023-04-29T09:52:02.310Z,49.70
2023-04-29T09:53:02.331Z,54.30
2023-04-29T09:54:02.112Z,51.40
2023-04-29T09:55:02.136Z,47.90
2023-04-29T09:56:02.220Z,48.60
2023-04-29T09:57:02.140Z,48.50
2023-04-29T09:58:02.144Z,49.10
2023-04-29T09:59:02.142Z,53.90
2023-04-29T10:00:02.165Z,55.00
2023-04-29T10:01:02.214Z,53.40
2023-04-29T10:02:02.153Z,51.20
2023-04-29T10:03:02.274Z,54.10
2023-04-29T10:04:02.301Z,52.00
2023-04-29T10:05:02.294Z,54.90
2023-04-29T10:06:02.215Z,57.80
2023-04-29T10:07:02.010Z,52.10
2023-04-29T10:08:02.003Z,57.90
2023-04-29T10:09:02.226Z,50.50
2023-04-29T10:10:01.960Z,51.70
2023-04-29T10:11:01.959Z,50.30
2023-04-29T10:12:01.968Z,51.10
2023-04-29T10:13:02.061Z,49.50
2023-04-29T10:14:02.163Z,53.30
2023-04-29T10:15:01.953Z,54.40
2023-04-29T10:16:02.320Z,50.90
2023-04-29T10:17:02.330Z,45.70
2023-04-29T10:18:01.996Z,47.60
2023-04-29T10:19:02.398Z,49.10
2023-04-29T10:20:01.994Z,46.50
2023-04-29T10:21:02.410Z,44.80
2023-04-29T10:22:02.408Z,46.70
2023-04-29T10:23:02.316Z,45.70
2023-04-29T10:24:02.363Z,45.20
2023-04-29T10:25:02.432Z,46.10
2023-04-29T10:26:02.569Z,44.20
2023-04-29T10:27:02.037Z,42.30
2023-04-29T10:28:02.356Z,45.10
2023-04-29T10:29:01.874Z,48.70
2023-04-29T10:30:01.862Z,47.80
2023-04-29T10:31:01.875Z,45.10
2023-04-29T10:32:01.870Z,40.70
2023-04-29T10:33:01.946Z,44.00
2023-04-29T10:34:02.113Z,43.50
2023-04-29T10:35:01.784Z,45.10
2023-04-29T10:36:02.007Z,40.20
2023-04-29T10:37:01.902Z,40.60
2023-04-29T10:38:01.815Z,39.20
2023-04-29T10:39:01.844Z,37.80
2023-04-29T10:40:01.833Z,36.30
2023-04-29T10:41:01.933Z,34.00
2023-04-29T10:42:01.734Z,37.80
2023-04-29T10:43:01.769Z,37.70
2023-04-29T10:44:03.598Z,38.10
2023-04-29T10:45:01.783Z,36.70
2023-04-29T10:46:01.767Z,39.10
2023-04-29T10:47:01.951Z,37.80
2023-04-29T10:48:01.935Z,40.00
2023-04-29T10:49:01.899Z,37.80
2023-04-29T10:50:01.785Z,35.00
2023-04-29T10:51:01.816Z,40.20
2023-04-29T10:52:02.120Z,36.20
2023-04-29T10:53:02.132Z,36.40
2023-04-29T10:54:02.164Z,35.70
2023-04-29T10:55:01.732Z,41.10
2023-04-29T10:56:02.279Z,38.40
2023-04-29T10:57:01.939Z,42.80
2023-04-29T10:58:01.635Z,36.10
2023-04-29T10:59:01.767Z,36.90
2023-04-29T11:00:02.483Z,38.10
2023-04-29T11:01:02.012Z,34.50
2023-04-29T11:02:02.079Z,40.50
2023-04-29T11:03:02.522Z,38.20
2023-04-29T11:04:02.573Z,41.10
2023-04-29T11:05:02.571Z,40.30
2023-04-29T11:06:02.101Z,40.40
2023-04-29T11:07:01.705Z,38.50
2023-04-29T11:08:01.607Z,41.80
2023-04-29T11:09:01.637Z,42.20
2023-04-29T11:10:01.735Z,46.20
2023-04-29T11:11:01.545Z,48.00
2023-04-29T11:12:01.664Z,45.80
2023-04-29T11:13:01.869Z,45.10
2023-04-29T11:14:01.963Z,42.50
2023-04-29T11:15:01.786Z,54.10
2023-04-29T11:16:02.045Z,43.70
2023-04-29T11:17:02.104Z,42.90
2023-04-29T11:18:02.259Z,42.10
2023-04-29T11:19:01.588Z,43.20
2023-04-29T11:20:01.612Z,41.90
2023-04-29T11:21:01.816Z,42.30
2023-04-29T11:22:01.624Z,41.00
2023-04-29T11:23:01.610Z,43.70
2023-04-29T11:24:01.656Z,37.40
2023-04-29T11:25:01.454Z,39.10
2023-04-29T11:26:01.874Z,38.00
2023-04-29T11:27:02.158Z,39.40
2023-04-29T11:28:01.669Z,37.90
2023-04-29T11:29:02.173Z,38.50
2023-04-29T11:30:01.472Z,36.60
2023-04-29T11:31:01.808Z,39.50
2023-04-29T11:32:02.095Z,38.30
2023-04-29T11:33:02.399Z,38.00
2023-04-29T11:34:02.220Z,33.10
2023-04-29T11:35:01.622Z,36.90
2023-04-29T11:36:01.399Z,35.60
2023-04-29T11:37:01.337Z,35.40
2023-04-29T11:38:01.327Z,36.40
2023-04-29T11:39:01.339Z,32.80
2023-04-29T11:40:01.336Z,34.20
2023-04-29T11:41:01.351Z,34.80
2023-04-29T11:42:01.345Z,34.80
2023-04-29T11:43:01.370Z,34.20
2023-04-29T11:44:01.385Z,33.80
2023-04-29T11:45:01.318Z,33.80
2023-04-29T11:46:01.334Z,34.40
2023-04-29T11:47:01.277Z,33.60
2023-04-29T11:48:01.321Z,37.40
2023-04-29T11:49:01.287Z,36.30
2023-04-29T11:50:01.304Z,37.70
2023-04-29T11:51:01.329Z,34.50
2023-04-29T11:52:01.308Z,35.70
2023-04-29T11:53:01.232Z,36.60
2023-04-29T11:54:01.230Z,36.60
2023-04-29T11:55:01.355Z,35.90
2023-04-29T11:56:01.366Z,37.70
2023-04-29T11:57:01.459Z,37.20
2023-04-29T11:58:01.474Z,32.30
2023-04-29T11:59:01.383Z,36.20
2023-04-29T12:00:01.361Z,33.50
2023-04-29T12:01:01.475Z,34.10
2023-04-29T12:02:01.548Z,32.80
2023-04-29T12:03:01.597Z,38.40
2023-04-29T12:04:01.984Z,34.70
2023-04-29T12:05:02.058Z,36.20
2023-04-29T12:06:01.132Z,33.50
2023-04-29T12:07:01.218Z,37.30
2023-04-29T12:08:01.228Z,35.60
2023-04-29T12:09:01.354Z,35.70
2023-04-29T12:10:01.342Z,36.90
2023-04-29T12:11:01.107Z,36.50
2023-04-29T12:12:01.118Z,33.90
2023-04-29T12:13:01.140Z,35.20
2023-04-29T12:14:01.151Z,34.80
2023-04-29T12:15:01.119Z,31.80
2023-04-29T12:16:01.196Z,36.50
2023-04-29T12:17:01.142Z,35.00
2023-04-29T12:18:01.264Z,33.80
2023-04-29T12:19:01.212Z,35.20
2023-04-29T12:20:01.255Z,33.20
2023-04-29T12:21:01.121Z,35.20
2023-04-29T12:22:01.224Z,35.40
2023-04-29T12:23:01.031Z,33.10
2023-04-29T12:24:01.228Z,34.30
2023-04-29T12:25:01.169Z,35.60
2023-04-29T12:26:01.303Z,35.70
2023-04-29T12:27:01.041Z,34.80
2023-04-29T12:28:01.323Z,35.30
2023-04-29T12:29:01.060Z,38.70
2023-04-29T12:30:01.001Z,37.30
2023-04-29T12:31:01.441Z,34.80
2023-04-29T12:32:01.456Z,35.90
2023-04-29T12:33:01.111Z,35.10
2023-04-29T12:34:01.088Z,35.40
2023-04-29T12:35:01.196Z,34.20
2023-04-29T12:36:00.928Z,35.80
2023-04-29T12:37:00.929Z,35.80
2023-04-29T12:38:00.921Z,31.40
2023-04-29T12:39:00.924Z,32.80
2023-04-29T12:40:00.930Z,32.80
2023-04-29T12:41:00.939Z,35.20
2023-04-29T12:42:01.059Z,33.40
2023-04-29T12:43:00.952Z,35.10
2023-04-29T12:44:01.078Z,33.90